Baltzer, Mississippi
Current Conditions -  °F | °C
As of 8:55 AM on Monday 24 Nov 2014 (Local Time) from KCKM Reporting Station
Clear Clear  
Wind Chill: 50°   Ceiling: Unl
Heat Index: 50°   Visibility: 10mi
Dew Point: 39°   Wind: 20mph
Humidity: 66%   Direction: 280°W
Pressure: 29.89"   Gusts: 23mph
Location:  34.1809°N, 90.6118°W
Report Text: KCKM 241455Z AUTO 28017G20KT 10SM CLR 10/04 A2989 RMK AO1
Loading
Personal Weather Stations






























Interactive Weather Map New forecast layout! Learn more

10-Day Weather Forecast

Advertisements
Track Severe Weather on mobile